Time;durP1;ratioP1;P1;durP2;ratioP2;P2;SDS_P1;SDS_P2;PMS_P1;PMS_P2;Temp;Humidity;BMP_temperature;BMP_pressure;BME280_temperature;BME280_humidity;BME280_pressure;Samples;Min_cycle;Max_cycle;Signal;HPM_P1;HPM_P2
2023/10/14 00:02:08;;;;;;;1.80;0.50;;;17.90;97.70;;;;;;5103477;27;20059;-81
2023/10/14 00:04:34;;;;;;;2.38;0.47;;;17.90;97.70;;;;;;5105659;27;20095;-81
2023/10/14 00:07:07;;;;;;;2.50;0.45;;;17.90;97.60;;;;;;5118857;27;20054;-81
2023/10/14 00:09:35;;;;;;;1.35;0.45;;;17.90;97.60;;;;;;5103947;27;20042;-80
2023/10/14 00:12:04;;;;;;;1.98;0.43;;;17.90;98.00;;;;;;5102376;27;20536;-80
2023/10/14 00:14:30;;;;;;;3.15;0.60;;;17.90;97.60;;;;;;5102642;27;20180;-81
2023/10/14 00:16:56;;;;;;;1.55;0.57;;;17.90;97.50;;;;;;5101754;27;20027;-81
2023/10/14 00:19:22;;;;;;;1.30;0.50;;;17.80;97.10;;;;;;5118742;27;20027;-81
2023/10/14 00:21:49;;;;;;;2.20;0.60;;;17.70;97.10;;;;;;5118900;27;20031;-81
2023/10/14 00:24:25;;;;;;;1.23;0.50;;;17.70;97.30;;;;;;5135548;27;20023;-81
2023/10/14 00:26:55;;;;;;;3.53;0.60;;;17.60;97.30;;;;;;5119667;27;20027;-80
2023/10/14 00:29:21;;;;;;;5.22;0.50;;;17.60;97.20;;;;;;5135431;27;20106;-81
2023/10/14 00:31:49;;;;;;;2.45;0.52;;;17.50;97.10;;;;;;5101338;27;20027;-81
2023/10/14 00:34:15;;;;;;;3.30;0.55;;;17.50;97.20;;;;;;5135304;27;20476;-81
2023/10/14 00:36:42;;;;;;;0.90;0.50;;;17.40;97.10;;;;;;5101117;27;20034;-81
2023/10/14 00:39:23;;;;;;;1.40;0.60;;;17.40;97.20;;;;;;5101100;27;20031;-80
2023/10/14 00:41:52;;;;;;;1.40;0.40;;;17.40;97.20;;;;;;5135215;27;20050;-81
2023/10/14 00:44:20;;;;;;;1.80;0.30;;;17.40;97.10;;;;;;5118682;27;20063;-81
2023/10/14 00:46:48;;;;;;;3.00;0.40;;;17.40;97.30;;;;;;5100990;27;20054;-80
2023/10/14 00:49:16;;;;;;;2.90;0.47;;;17.40;97.10;;;;;;5118087;27;20487;-80
2023/10/14 00:51:44;;;;;;;1.65;0.38;;;17.30;97.10;;;;;;5134951;27;20043;-80
2023/10/14 00:54:11;;;;;;;1.40;0.28;;;17.30;97.20;;;;;;5134875;27;20023;-80
2023/10/14 00:56:40;;;;;;;1.13;0.38;;;17.30;97.10;;;;;;5134766;27;20019;-80
2023/10/14 00:59:08;;;;;;;1.25;0.30;;;17.30;97.40;;;;;;5118196;27;20023;-81
2023/10/14 01:01:55;;;;;;;0.50;0.38;;;17.30;97.10;;;;;;5101166;27;20034;-80
2023/10/14 01:04:31;;;;;;;0.35;0.30;;;17.40;97.10;;;;;;5106662;27;20490;-80
2023/10/14 01:09:52;;;;;;;2.08;0.55;;;17.30;97.20;;;;;;5134904;27;20027;-80
2023/10/14 01:14:46;;;;;;;1.35;0.40;;;17.20;97.50;;;;;;5134678;27;20031;-80
2023/10/14 01:17:25;;;;;;;1.60;0.43;;;17.20;97.60;;;;;;5100659;27;20084;-80
2023/10/14 01:19:51;;;;;;;0.98;0.32;;;17.20;97.50;;;;;;5134707;27;20114;-80
2023/10/14 01:22:17;;;;;;;2.22;0.50;;;17.20;97.60;;;;;;5100437;27;20049;-80
2023/10/14 01:24:43;;;;;;;3.58;0.60;;;17.10;97.50;;;;;;5134764;27;20031;-80
2023/10/14 01:27:10;;;;;;;1.42;0.68;;;17.10;97.60;;;;;;5100321;27;20438;-81
2023/10/14 01:29:40;;;;;;;1.38;0.70;;;17.10;97.60;;;;;;5100959;27;20023;-80
2023/10/14 01:35:12;;;;;;;0.85;0.63;;;17.10;97.20;;;;;;5134552;27;20038;-80
2023/10/14 01:37:40;;;;;;;2.35;0.73;;;16.90;97.20;;;;;;5135555;27;20064;-80
2023/10/14 01:42:57;;;;;;;2.85;0.60;;;16.90;97.10;;;;;;5135430;27;20119;-80
2023/10/14 01:45:30;;;;;;;5.28;0.68;;;16.90;96.90;;;;;;5133594;27;20112;-80
2023/10/14 01:50:38;;;;;;;1.83;0.70;;;16.70;96.40;;;;;;5118345;27;20035;-80
2023/10/14 01:53:10;;;;;;;4.97;0.80;;;16.70;96.60;;;;;;5099782;27;20031;-80
2023/10/14 01:55:38;;;;;;;2.75;0.50;;;16.70;96.50;;;;;;5117133;27;20039;-80
2023/10/14 01:58:09;;;;;;;3.08;0.98;;;16.60;96.30;;;;;;5116600;27;20027;-80
2023/10/14 02:00:39;;;;;;;4.00;0.77;;;16.60;96.20;;;;;;5100989;27;20061;-80
2023/10/14 02:03:08;;;;;;;3.85;1.30;;;16.50;96.40;;;;;;5117222;27;20172;-80
2023/10/14 02:05:39;;;;;;;3.58;1.00;;;16.40;96.20;;;;;;5133470;27;20030;-80
2023/10/14 02:08:15;;;;;;;5.43;1.00;;;16.40;96.30;;;;;;5133734;27;20041;-80
2023/10/14 02:10:46;;;;;;;1.52;0.65;;;16.30;96.40;;;;;;5118136;27;20315;-80
2023/10/14 02:13:16;;;;;;;3.20;1.00;;;16.40;96.50;;;;;;5133357;27;20031;-80
2023/10/14 02:15:48;;;;;;;5.10;0.90;;;16.40;96.60;;;;;;5099516;27;20114;-80
2023/10/14 02:18:16;;;;;;;;;;;16.40;96.50;;;;;;5135062;27;20028;-80
2023/10/14 02:20:56;;;;;;;4.93;1.33;;;16.40;96.30;;;;;;5134729;27;19907;-80
2023/10/14 02:23:43;;;;;;;4.28;1.00;;;16.30;96.30;;;;;;5118127;27;20031;-80
2023/10/14 02:26:22;;;;;;;4.70;0.70;;;16.30;96.40;;;;;;5132992;27;20412;-80
2023/10/14 02:28:49;;;;;;;4.05;1.23;;;16.40;96.30;;;;;;5133168;27;20019;-80
2023/10/14 02:31:18;;;;;;;7.78;1.17;;;16.40;95.90;;;;;;5116227;27;20026;-79
2023/10/14 02:33:47;;;;;;;6.38;1.30;;;16.40;96.00;;;;;;5116561;27;20023;-80
2023/10/14 02:36:17;;;;;;;5.30;1.20;;;16.40;96.00;;;;;;5116173;27;20126;-80
2023/10/14 02:38:45;;;;;;;7.10;1.60;;;16.30;95.80;;;;;;5133204;27;20027;-81
2023/10/14 02:41:14;;;;;;;8.65;1.58;;;16.30;96.20;;;;;;5133189;27;20480;-80
2023/10/14 02:43:41;;;;;;;6.20;0.90;;;16.30;95.70;;;;;;5132976;27;20027;-80
2023/10/14 02:46:10;;;;;;;5.63;1.00;;;16.40;95.70;;;;;;5115886;27;20031;-80
2023/10/14 02:48:52;;;;;;;5.53;0.90;;;16.30;95.40;;;;;;5133017;27;20038;-80
2023/10/14 02:51:29;;;;;;;6.55;0.93;;;16.20;95.50;;;;;;5133012;27;20472;-79
2023/10/14 02:53:56;;;;;;;3.75;0.80;;;16.20;95.70;;;;;;5117222;28;20027;-80
2023/10/14 02:56:32;;;;;;;4.78;1.10;;;16.20;95.20;;;;;;5133116;28;20043;-80
2023/10/14 02:58:58;;;;;;;6.82;1.00;;;16.10;95.20;;;;;;5133062;27;20023;-80
2023/10/14 03:01:31;;;;;;;4.82;0.95;;;16.10;95.10;;;;;;5116289;27;20027;-80
2023/10/14 03:04:08;;;;;;;3.88;1.00;;;16.00;95.20;;;;;;5121047;27;20118;-80
2023/10/14 03:06:46;;;;;;;7.47;1.10;;;16.00;95.20;;;;;;5105725;27;20027;-80
2023/10/14 03:09:17;;;;;;;4.57;0.82;;;16.00;95.00;;;;;;5121857;27;20062;-80
2023/10/14 03:11:44;;;;;;;7.68;1.20;;;15.90;94.90;;;;;;5136977;27;20015;-80
2023/10/14 03:14:10;;;;;;;5.80;0.93;;;15.90;95.00;;;;;;5119735;27;20031;-80
2023/10/14 03:16:35;;;;;;;6.47;1.20;;;15.80;94.90;;;;;;5119738;27;20026;-80
2023/10/14 03:19:02;;;;;;;9.18;1.30;;;15.80;94.80;;;;;;5119886;27;20023;-80
2023/10/14 03:21:30;;;;;;;5.35;1.15;;;15.80;94.70;;;;;;5119342;27;20476;-80
2023/10/14 03:23:57;;;;;;;3.90;0.90;;;15.80;94.90;;;;;;5119752;27;20102;-79
2023/10/14 03:26:31;;;;;;;5.93;1.00;;;15.80;94.70;;;;;;5119537;27;20034;-80
2023/10/14 03:28:57;;;;;;;4.60;1.10;;;15.70;94.50;;;;;;5104807;27;20072;-80
2023/10/14 03:31:24;;;;;;;6.28;1.55;;;15.70;94.40;;;;;;5119771;27;20023;-80
2023/10/14 03:33:54;;;;;;;5.85;0.93;;;15.60;94.40;;;;;;5119748;27;20098;-79
2023/10/14 03:36:28;;;;;;;5.10;0.85;;;15.60;94.40;;;;;;5120288;27;20030;-80
2023/10/14 03:38:58;;;;;;;6.82;1.40;;;15.50;94.30;;;;;;5120462;27;20031;-79
2023/10/14 03:41:29;;;;;;;7.43;1.02;;;15.50;94.20;;;;;;5136425;27;20022;-80
2023/10/14 03:46:47;;;;;;;3.65;0.98;;;15.40;94.00;;;;;;5137520;27;20033;-79
2023/10/14 03:49:25;;;;;;;7.03;1.55;;;15.30;93.90;;;;;;5136386;27;20496;-79
2023/10/14 03:51:57;;;;;;;6.18;1.00;;;15.30;94.40;;;;;;5136194;27;20090;-79
2023/10/14 03:54:31;;;;;;;9.23;1.43;;;15.30;93.80;;;;;;5119536;27;20388;-79
2023/10/14 03:56:57;;;;;;;3.53;1.00;;;15.20;93.70;;;;;;5136293;27;20027;-79
2023/10/14 03:59:23;;;;;;;5.95;1.20;;;15.20;93.80;;;;;;5136145;27;20055;-79
2023/10/14 04:01:57;;;;;;;6.70;0.98;;;15.10;93.60;;;;;;5118996;27;20479;-80
2023/10/14 04:04:27;;;;;;;6.10;1.10;;;15.20;93.70;;;;;;5103994;27;20030;-79
2023/10/14 04:09:40;;;;;;;5.00;1.10;;;15.10;93.60;;;;;;5136052;27;20190;-79
2023/10/14 04:12:08;;;;;;;4.25;0.85;;;15.00;93.40;;;;;;5135724;27;20076;-80
2023/10/14 04:14:39;;;;;;;7.38;1.17;;;15.00;93.20;;;;;;5136158;27;20376;-79
2023/10/14 04:19:44;;;;;;;5.13;1.00;;;14.90;93.50;;;;;;5137187;27;20030;-79
2023/10/14 04:22:38;;;;;;;6.22;1.10;;;15.00;93.50;;;;;;5119654;27;20028;-80
2023/10/14 04:30:32;;;;;;;3.50;1.10;;;14.90;93.30;;;;;;5136784;27;20026;-79
2023/10/14 04:35:31;;;;;;;5.95;1.42;;;14.80;93.10;;;;;;5136535;27;20033;-80
2023/10/14 04:38:12;;;;;;;5.53;1.00;;;14.70;93.20;;;;;;5135381;27;20126;-80
2023/10/14 04:40:38;;;;;;;7.20;1.17;;;14.70;93.10;;;;;;5136707;27;20019;-79
2023/10/14 04:45:52;;;;;;;3.97;1.00;;;14.70;93.10;;;;;;5136362;27;20039;-80
2023/10/14 04:48:37;;;;;;;3.92;1.10;;;14.70;93.20;;;;;;5134869;27;20516;-80
2023/10/14 04:51:09;;;;;;;4.32;1.15;;;14.70;93.40;;;;;;5135157;27;20023;-80
2023/10/14 04:53:35;;;;;;;;;;;14.70;92.90;;;;;;5135687;27;20020;-80
2023/10/14 04:56:08;;;;;;;4.72;1.27;;;14.60;92.70;;;;;;5134890;27;19910;-80
2023/10/14 04:58:34;;;;;;;8.45;2.08;;;14.50;92.80;;;;;;5135141;27;20080;-80
2023/10/14 05:01:08;;;;;;;3.67;1.23;;;14.40;92.80;;;;;;5117901;27;20594;-79
2023/10/14 05:03:33;;;;;;;5.28;1.02;;;14.30;92.80;;;;;;5134789;27;20034;-80
2023/10/14 05:08:46;;;;;;;7.03;1.27;;;14.00;93.00;;;;;;5136086;27;20070;-80
2023/10/14 05:11:18;;;;;;;5.30;1.17;;;13.90;93.20;;;;;;5134722;27;20047;-80
2023/10/14 05:13:46;;;;;;;;;;;13.90;93.30;;;;;;5135129;27;20027;-80
2023/10/14 05:16:21;;;;;;;5.70;1.30;;;13.80;93.40;;;;;;5134713;27;19936;-79
2023/10/14 05:19:00;;;;;;;7.40;1.33;;;13.70;93.60;;;;;;5134643;27;20027;-79
2023/10/14 05:21:43;;;;;;;5.22;1.00;;;13.70;93.70;;;;;;5134605;27;20023;-80
2023/10/14 05:24:10;;;;;;;3.67;1.20;;;13.60;93.70;;;;;;5119531;27;20028;-80
2023/10/14 05:26:44;;;;;;;5.40;1.17;;;13.50;93.90;;;;;;5099374;27;20034;-80
2023/10/14 05:29:19;;;;;;;4.45;1.00;;;13.50;93.90;;;;;;5134519;27;20046;-80
2023/10/14 05:31:45;;;;;;;6.38;1.27;;;13.50;93.90;;;;;;5134590;27;20028;-80
2023/10/14 05:34:11;;;;;;;5.47;1.35;;;13.50;93.90;;;;;;5134308;27;20023;-80
2023/10/14 05:36:37;;;;;;;7.15;1.10;;;13.40;94.00;;;;;;5135559;27;20381;-79
2023/10/14 05:39:03;;;;;;;8.65;1.30;;;13.40;94.10;;;;;;5117007;27;20042;-79
2023/10/14 05:41:30;;;;;;;4.82;1.30;;;13.40;94.20;;;;;;5117009;27;20480;-80
2023/10/14 05:43:56;;;;;;;5.03;1.60;;;13.40;94.20;;;;;;5117301;27;20039;-80
2023/10/14 05:46:23;;;;;;;7.78;1.30;;;13.30;94.30;;;;;;5133588;27;20042;-80
2023/10/14 05:48:52;;;;;;;5.38;1.50;;;13.40;94.30;;;;;;5133969;27;20389;-79
2023/10/14 05:51:19;;;;;;;3.38;1.15;;;13.40;94.40;;;;;;5117328;27;20034;-80
2023/10/14 05:53:46;;;;;;;4.57;1.33;;;13.40;94.30;;;;;;5099786;27;20019;-80
2023/10/14 05:56:15;;;;;;;4.65;1.50;;;13.40;94.40;;;;;;5100012;27;20092;-79
2023/10/14 05:58:42;;;;;;;4.90;1.13;;;13.40;94.40;;;;;;5133882;27;20084;-80
2023/10/14 06:01:09;;;;;;;6.75;1.30;;;13.30;94.50;;;;;;5133906;27;20023;-80
2023/10/14 06:03:36;;;;;;;11.05;1.48;;;13.30;94.60;;;;;;5133669;27;20027;-81
2023/10/14 06:06:03;;;;;;;6.75;1.55;;;13.30;94.70;;;;;;5134825;27;20031;-80
2023/10/14 06:08:32;;;;;;;4.18;1.20;;;13.30;94.70;;;;;;5116608;27;20472;-80
2023/10/14 06:10:59;;;;;;;7.10;1.38;;;13.30;94.80;;;;;;5100748;27;20459;-80
2023/10/14 06:13:27;;;;;;;6.13;1.45;;;13.40;94.80;;;;;;5116299;27;20293;-80
2023/10/14 06:15:53;;;;;;;10.57;1.83;;;13.40;94.80;;;;;;5116778;27;20056;-80
2023/10/14 06:18:19;;;;;;;8.80;1.77;;;13.40;94.90;;;;;;5116282;27;20480;-80
2023/10/14 06:20:47;;;;;;;10.18;1.63;;;13.40;94.70;;;;;;5133355;27;20030;-80
2023/10/14 06:23:13;;;;;;;6.43;1.55;;;13.40;94.80;;;;;;5116924;27;20030;-80
2023/10/14 06:25:40;;;;;;;9.48;1.42;;;13.40;94.80;;;;;;5133144;27;20447;-80
2023/10/14 06:28:07;;;;;;;5.15;1.55;;;13.40;94.90;;;;;;5133361;27;20103;-80
2023/10/14 06:30:33;;;;;;;4.38;1.50;;;13.40;94.80;;;;;;5099484;27;20027;-80
2023/10/14 06:33:03;;;;;;;6.72;1.30;;;13.40;94.80;;;;;;5134245;27;20094;-80
2023/10/14 06:35:42;;;;;;;8.38;1.60;;;13.40;94.70;;;;;;5092923;27;20139;-80
2023/10/14 06:38:09;;;;;;;5.00;1.80;;;13.40;94.60;;;;;;5115084;27;20050;-80
2023/10/14 06:40:36;;;;;;;9.75;1.40;;;13.30;94.60;;;;;;5098661;27;20047;-80
2023/10/14 06:43:13;;;;;;;7.28;1.33;;;13.30;94.70;;;;;;5098929;28;20503;-80
2023/10/14 06:45:39;;;;;;;6.55;1.42;;;13.30;94.80;;;;;;5115377;28;20038;-80
2023/10/14 06:48:10;;;;;;;6.03;1.23;;;13.30;94.70;;;;;;5133861;27;20108;-80
2023/10/14 06:50:47;;;;;;;5.57;1.65;;;13.30;94.70;;;;;;5098711;27;20031;-80
2023/10/14 06:53:14;;;;;;;6.15;1.13;;;13.30;94.60;;;;;;5115315;28;20053;-80
2023/10/14 06:55:40;;;;;;;5.25;1.33;;;13.30;94.70;;;;;;5098789;28;20027;-80
2023/10/14 06:58:11;;;;;;;6.03;2.05;;;13.30;94.70;;;;;;5098394;28;20030;-80
2023/10/14 07:00:38;;;;;;;7.15;1.75;;;13.30;94.70;;;;;;5115455;28;20031;-80
2023/10/14 07:03:12;;;;;;;4.65;1.55;;;13.30;94.80;;;;;;5098362;28;20496;-80
2023/10/14 07:05:48;;;;;;;7.72;2.38;;;13.30;94.70;;;;;;5115158;28;20465;-80
2023/10/14 07:08:15;;;;;;;5.20;1.48;;;13.40;94.60;;;;;;5115345;28;20019;-80
2023/10/14 07:10:41;;;;;;;9.65;1.70;;;13.30;94.70;;;;;;5133787;28;20023;-80
2023/10/14 07:13:08;;;;;;;7.28;1.63;;;13.30;94.70;;;;;;5098296;28;20034;-80
2023/10/14 07:15:41;;;;;;;5.95;1.77;;;13.30;94.70;;;;;;5097890;28;20023;-80
2023/10/14 07:18:08;;;;;;;8.38;1.70;;;13.30;94.70;;;;;;5098173;28;20038;-80
2023/10/14 07:20:34;;;;;;;4.50;1.50;;;13.30;94.80;;;;;;5114861;28;20088;-80
2023/10/14 07:23:01;;;;;;;7.32;1.65;;;13.30;94.90;;;;;;5081301;28;20023;-80
2023/10/14 07:25:40;;;;;;;4.63;1.33;;;13.40;95.00;;;;;;5098030;28;20083;-80
2023/10/14 07:28:14;;;;;;;5.13;1.60;;;13.40;95.00;;;;;;5098333;28;20419;-80
2023/10/14 07:30:48;;;;;;;4.25;1.30;;;13.50;94.90;;;;;;5133192;28;20050;-80
2023/10/14 07:33:19;;;;;;;6.65;1.75;;;13.50;94.80;;;;;;5115950;28;20023;-80
2023/10/14 07:35:47;;;;;;;6.35;1.90;;;13.50;94.80;;;;;;5098283;28;20030;-80
2023/10/14 07:38:12;;;;;;;7.80;2.15;;;13.50;94.60;;;;;;5098040;28;20065;-80
2023/10/14 07:40:39;;;;;;;11.60;2.40;;;13.50;94.50;;;;;;5097838;28;20038;-80
2023/10/14 07:43:13;;;;;;;6.97;1.35;;;13.50;94.60;;;;;;5114742;28;20054;-80
2023/10/14 07:45:44;;;;;;;7.65;1.52;;;13.60;94.50;;;;;;5114639;28;20034;-80
2023/10/14 07:48:11;;;;;;;7.15;1.33;;;13.60;94.30;;;;;;5132946;27;20047;-80
2023/10/14 07:50:42;;;;;;;4.40;1.30;;;13.60;94.10;;;;;;5101555;27;20023;-80
2023/10/14 07:53:13;;;;;;;6.00;1.70;;;13.60;94.30;;;;;;5136848;27;20019;-80
2023/10/14 07:55:39;;;;;;;5.40;1.40;;;13.70;94.20;;;;;;5119243;27;20054;-79
2023/10/14 07:58:08;;;;;;;8.00;1.38;;;13.70;94.20;;;;;;5118798;27;20480;-80
2023/10/14 08:00:39;;;;;;;7.15;1.42;;;13.80;94.00;;;;;;5101728;27;20157;-80
2023/10/14 08:03:14;;;;;;;4.85;1.25;;;13.90;94.00;;;;;;5118370;27;20031;-80
2023/10/14 08:05:41;;;;;;;9.18;1.67;;;13.90;93.60;;;;;;5136506;27;20019;-80
2023/10/14 08:08:11;;;;;;;6.18;1.42;;;13.90;93.70;;;;;;5118029;27;20077;-80
2023/10/14 08:10:42;;;;;;;7.50;1.38;;;14.00;93.70;;;;;;5118180;27;20353;-79
2023/10/14 08:13:12;;;;;;;6.07;2.03;;;14.00;93.30;;;;;;5101771;27;20422;-79
2023/10/14 08:15:37;;;;;;;5.93;1.42;;;14.10;93.00;;;;;;5118188;27;20371;-80
2023/10/14 08:18:07;;;;;;;6.55;1.50;;;14.10;92.80;;;;;;5084294;27;20058;-80
2023/10/14 08:20:34;;;;;;;8.45;1.20;;;14.10;92.50;;;;;;5117847;27;20061;-80
2023/10/14 08:23:00;;;;;;;4.75;1.00;;;14.10;92.20;;;;;;5118195;27;20019;-79
2023/10/14 08:25:28;;;;;;;6.95;1.85;;;14.10;91.80;;;;;;5117722;27;20027;-80
2023/10/14 08:27:55;;;;;;;5.47;1.15;;;14.10;92.20;;;;;;5136094;27;20011;-80
2023/10/14 08:30:24;;;;;;;6.57;1.40;;;14.20;92.20;;;;;;5101118;27;20102;-80
2023/10/14 08:32:52;;;;;;;3.85;1.17;;;14.20;92.00;;;;;;5117493;27;20019;-80
2023/10/14 08:35:19;;;;;;;5.03;1.08;;;14.30;92.00;;;;;;5100802;27;20024;-80
2023/10/14 08:37:47;;;;;;;4.95;1.02;;;14.30;91.60;;;;;;5100789;27;20019;-80
2023/10/14 08:40:16;;;;;;;7.00;1.20;;;14.40;91.80;;;;;;5117721;27;20472;-80
2023/10/14 08:42:46;;;;;;;8.13;1.77;;;14.40;92.00;;;;;;5117496;27;20012;-80
2023/10/14 08:45:12;;;;;;;3.60;1.10;;;14.60;91.80;;;;;;5117287;27;20536;-80
2023/10/14 08:47:40;;;;;;;7.93;1.40;;;14.60;91.20;;;;;;5117291;27;20126;-80
2023/10/14 08:50:09;;;;;;;6.97;1.42;;;14.70;91.20;;;;;;5084425;27;20537;-80
2023/10/14 08:52:37;;;;;;;8.65;2.08;;;14.80;91.40;;;;;;5100635;27;20045;-80
2023/10/14 08:55:05;;;;;;;6.15;1.33;;;14.90;91.20;;;;;;5117817;27;20477;-80
2023/10/14 08:57:31;;;;;;;3.70;1.33;;;14.90;91.20;;;;;;5135908;27;20468;-77
2023/10/14 08:59:57;;;;;;;6.05;1.33;;;14.90;90.50;;;;;;5099985;27;20038;-80
2023/10/14 09:02:25;;;;;;;5.53;1.50;;;15.00;91.00;;;;;;5100070;27;20100;-80
2023/10/14 09:04:51;;;;;;;7.55;1.58;;;15.10;90.60;;;;;;5083939;27;20027;-80
2023/10/14 09:07:22;;;;;;;7.18;1.30;;;15.00;89.70;;;;;;5099959;27;20473;-80
2023/10/14 09:09:53;;;;;;;4.38;1.35;;;15.10;89.70;;;;;;5117113;27;20160;-80
2023/10/14 09:12:18;;;;;;;6.72;2.08;;;15.20;89.00;;;;;;5117572;27;20507;-80
2023/10/14 09:14:44;;;;;;;8.02;1.63;;;15.20;89.70;;;;;;5099860;27;20055;-79
2023/10/14 09:17:10;;;;;;;6.95;1.23;;;15.20;88.60;;;;;;5099811;27;20027;-79
2023/10/14 09:19:47;;;;;;;4.93;1.27;;;15.30;89.30;;;;;;5116846;27;20042;-79
2023/10/14 09:22:26;;;;;;;6.65;1.17;;;15.40;89.10;;;;;;5100393;27;20430;-79
2023/10/14 09:24:58;;;;;;;7.78;1.02;;;15.40;86.90;;;;;;5083435;27;20189;-79
2023/10/14 09:27:31;;;;;;;5.15;1.27;;;15.30;86.80;;;;;;5116614;27;20026;-79
2023/10/14 09:29:58;;;;;;;5.32;1.17;;;15.40;88.10;;;;;;5116589;27;20023;-79
2023/10/14 09:32:24;;;;;;;5.78;1.30;;;15.40;87.90;;;;;;5116802;27;20388;-79
2023/10/14 09:34:51;;;;;;;7.72;1.20;;;15.50;87.60;;;;;;5116921;27;20023;-80
2023/10/14 09:37:21;;;;;;;5.50;1.13;;;15.60;87.60;;;;;;5099589;27;20031;-79
2023/10/14 09:39:49;;;;;;;5.65;1.38;;;15.70;86.40;;;;;;5100075;27;20046;-79
2023/10/14 09:42:16;;;;;;;6.00;1.55;;;15.70;86.70;;;;;;5135041;27;20034;-80
2023/10/14 09:44:43;;;;;;;7.32;1.45;;;15.70;86.60;;;;;;5116601;27;20120;-81
2023/10/14 09:47:22;;;;;;;7.80;1.20;;;15.90;87.00;;;;;;5116434;27;20525;-80
2023/10/14 09:49:49;;;;;;;7.55;1.48;;;16.00;85.90;;;;;;5116457;27;20027;-80
2023/10/14 09:52:18;;;;;;;6.20;1.20;;;16.10;85.90;;;;;;5083091;27;20028;-81
2023/10/14 09:54:49;;;;;;;6.35;1.45;;;16.10;84.70;;;;;;5134649;27;20019;-80
2023/10/14 09:57:16;;;;;;;6.07;1.30;;;16.10;84.90;;;;;;5083761;27;20042;-81
2023/10/14 09:59:42;;;;;;;7.10;1.65;;;16.20;83.70;;;;;;5082497;27;20059;-80
2023/10/14 10:02:09;;;;;;;6.55;1.00;;;16.20;84.00;;;;;;5116197;27;20115;-81
2023/10/14 10:04:40;;;;;;;4.60;1.20;;;16.30;82.50;;;;;;5116602;27;20027;-81
2023/10/14 10:07:41;;;;;;;8.77;1.30;;;16.30;83.20;;;;;;5115953;27;20027;-81
2023/10/14 10:10:25;;;;;;;6.05;1.15;;;16.50;83.70;;;;;;5116118;27;20019;-81
2023/10/14 10:12:55;;;;;;;5.55;1.33;;;16.50;80.10;;;;;;5115431;27;20008;-81
2023/10/14 10:15:24;;;;;;;5.80;0.95;;;16.40;81.30;;;;;;5116079;27;20488;-80
2023/10/14 10:18:03;;;;;;;5.97;1.20;;;16.30;80.10;;;;;;5117359;27;20100;-81
2023/10/14 10:20:36;;;;;;;6.30;1.48;;;16.20;80.50;;;;;;5116037;27;20060;-81
2023/10/14 10:23:02;;;;;;;4.97;1.00;;;16.20;81.90;;;;;;5099557;27;20103;-81
2023/10/14 10:25:37;;;;;;;7.40;1.33;;;16.30;82.10;;;;;;5098892;27;20182;-81
2023/10/14 10:28:23;;;;;;;6.85;1.02;;;16.50;83.00;;;;;;5116422;27;20019;-81
2023/10/14 10:30:49;;;;;;;6.03;1.17;;;16.60;80.20;;;;;;5115494;27;20393;-81
2023/10/14 10:33:15;;;;;;;4.28;1.02;;;16.60;80.20;;;;;;5097886;27;20141;-81
2023/10/14 10:36:03;;;;;;;7.28;1.10;;;16.70;81.70;;;;;;5098895;27;20031;-81
2023/10/14 10:38:36;;;;;;;6.18;1.80;;;17.00;81.20;;;;;;5098566;27;20056;-80
2023/10/14 10:41:24;;;;;;;4.45;1.00;;;17.00;79.10;;;;;;5099346;27;20369;-78
2023/10/14 10:44:10;;;;;;;6.05;1.17;;;17.00;79.00;;;;;;5134071;27;20019;-80
2023/10/14 10:46:38;;;;;;;7.88;1.00;;;17.00;75.60;;;;;;5118582;28;20038;-80
2023/10/14 10:49:06;;;;;;;3.63;0.95;;;17.00;76.30;;;;;;5115150;28;20039;-80
2023/10/14 10:51:36;;;;;;;6.55;1.45;;;17.10;76.90;;;;;;5133722;27;20020;-80
2023/10/14 10:54:02;;;;;;;6.38;1.10;;;17.10;75.60;;;;;;5115454;28;20430;-80
2023/10/14 10:56:34;;;;;;;6.18;1.45;;;17.10;76.80;;;;;;5115253;27;20034;-80
2023/10/14 10:59:04;;;;;;;;;;;17.20;75.40;;;;;;5116254;28;20038;-80
2023/10/14 11:01:31;;;;;;;4.20;0.80;;;17.20;73.90;;;;;;5098858;28;19908;-80
2023/10/14 11:04:08;;;;;;;7.55;1.30;;;17.30;76.50;;;;;;5115325;28;20380;-80
2023/10/14 11:06:35;;;;;;;2.40;0.90;;;17.40;74.90;;;;;;5099524;28;20050;-80
2023/10/14 11:09:01;;;;;;;8.60;1.52;;;17.40;76.10;;;;;;5115051;27;20122;-80
2023/10/14 11:11:32;;;;;;;7.88;1.40;;;17.50;75.50;;;;;;5115265;27;20121;-80
2023/10/14 11:14:25;;;;;;;5.40;1.00;;;17.50;72.90;;;;;;5115356;28;20003;-80
2023/10/14 11:16:54;;;;;;;6.22;1.00;;;17.40;71.70;;;;;;5113763;27;20480;-80
2023/10/14 11:19:20;;;;;;;5.05;0.85;;;17.20;72.30;;;;;;5098893;28;20100;-80
2023/10/14 11:21:49;;;;;;;3.03;0.75;;;17.20;72.80;;;;;;5115221;27;20476;-80
2023/10/14 11:24:15;;;;;;;4.78;1.08;;;17.20;71.30;;;;;;5118697;27;20389;-80
2023/10/14 11:26:44;;;;;;;6.88;1.30;;;17.20;72.00;;;;;;5119316;27;20088;-80
2023/10/14 11:29:10;;;;;;;4.25;0.93;;;17.20;72.20;;;;;;5086395;27;20507;-80
2023/10/14 11:31:39;;;;;;;4.82;1.02;;;17.20;70.20;;;;;;5102117;27;20099;-80
2023/10/14 11:34:05;;;;;;;7.45;1.25;;;17.10;71.80;;;;;;5118989;27;20027;-81
2023/10/14 11:36:30;;;;;;;5.43;0.90;;;17.00;71.40;;;;;;5085149;27;20027;-80
2023/10/14 11:38:58;;;;;;;4.65;1.30;;;16.90;71.70;;;;;;5101916;27;20015;-80
2023/10/14 11:41:27;;;;;;;5.75;1.95;;;16.80;73.20;;;;;;5102577;27;20024;-80
2023/10/14 11:43:54;;;;;;;4.47;0.90;;;16.80;73.30;;;;;;5119017;27;20045;-80
2023/10/14 11:46:20;;;;;;;5.70;1.42;;;16.90;74.00;;;;;;5118637;27;20023;-80
2023/10/14 11:48:49;;;;;;;4.90;0.70;;;16.80;74.00;;;;;;5114989;28;20040;-81
2023/10/14 11:51:19;;;;;;;4.65;0.98;;;16.80;70.90;;;;;;5115393;28;20118;-80
2023/10/14 11:53:50;;;;;;;4.30;1.05;;;16.80;72.30;;;;;;5115160;28;20102;-81
2023/10/14 11:56:17;;;;;;;6.03;1.00;;;16.70;71.60;;;;;;5115017;28;20501;-80
2023/10/14 11:58:43;;;;;;;3.22;0.80;;;16.70;72.20;;;;;;5115135;28;20032;-80
2023/10/14 12:01:09;;;;;;;3.22;0.88;;;16.60;72.30;;;;;;5097867;28;20028;-80
2023/10/14 12:03:39;;;;;;;5.22;1.00;;;16.60;71.50;;;;;;5114906;28;20016;-80
2023/10/14 12:06:06;;;;;;;4.65;0.90;;;16.70;71.90;;;;;;5097907;28;20118;-81
2023/10/14 12:08:37;;;;;;;4.38;0.90;;;16.80;71.10;;;;;;5116255;28;20019;-80
2023/10/14 12:11:04;;;;;;;6.50;1.52;;;16.90;72.50;;;;;;5116079;28;20031;-80
2023/10/14 12:13:30;;;;;;;7.32;1.10;;;17.00;71.10;;;;;;5115092;28;20023;-80
2023/10/14 12:15:56;;;;;;;6.43;1.13;;;17.10;71.30;;;;;;5114869;28;20028;-81
2023/10/14 12:18:21;;;;;;;5.63;0.70;;;17.20;71.60;;;;;;5097714;28;20020;-81
2023/10/14 12:20:48;;;;;;;5.50;1.00;;;17.30;72.50;;;;;;5080813;28;20031;-81
2023/10/14 12:23:19;;;;;;;4.85;0.93;;;17.40;70.80;;;;;;5097522;28;20062;-81
2023/10/14 12:25:49;;;;;;;5.25;0.80;;;17.50;70.70;;;;;;5114431;28;20031;-80
2023/10/14 12:28:25;;;;;;;6.47;1.17;;;17.60;70.30;;;;;;5115964;28;20426;-80
2023/10/14 12:31:06;;;;;;;7.15;1.20;;;17.70;71.80;;;;;;5098803;28;20053;-80
2023/10/14 12:33:35;;;;;;;5.85;0.85;;;17.70;66.70;;;;;;5083784;28;20023;-80
2023/10/14 12:36:14;;;;;;;6.03;0.95;;;17.60;66.30;;;;;;5114173;28;20024;-80
2023/10/14 12:38:42;;;;;;;3.83;0.75;;;17.50;67.20;;;;;;5114606;28;20030;-80
2023/10/14 12:41:09;;;;;;;5.47;0.80;;;17.40;67.90;;;;;;5114554;28;20028;-80
2023/10/14 12:43:39;;;;;;;5.07;0.90;;;17.40;68.30;;;;;;5114434;28;20031;-80
2023/10/14 12:46:14;;;;;;;6.70;1.00;;;17.30;68.30;;;;;;5097787;28;20542;-80
2023/10/14 12:48:42;;;;;;;6.50;1.30;;;17.30;68.90;;;;;;5114133;28;20047;-80
2023/10/14 12:51:12;;;;;;;4.30;0.98;;;17.20;69.10;;;;;;5113978;28;20484;-81
2023/10/14 12:53:47;;;;;;;4.55;0.85;;;17.20;70.20;;;;;;5114051;28;20024;-80
2023/10/14 12:56:17;;;;;;;7.18;1.60;;;17.20;69.50;;;;;;5115394;28;20401;-81
2023/10/14 12:58:44;;;;;;;4.18;1.05;;;17.20;69.30;;;;;;5113884;28;20020;-81
2023/10/14 13:01:16;;;;;;;3.20;0.80;;;17.20;69.90;;;;;;5114146;28;20202;-80
2023/10/14 13:03:46;;;;;;;3.90;0.88;;;17.20;70.00;;;;;;5113857;28;20447;-80
2023/10/14 13:06:13;;;;;;;7.90;0.98;;;17.20;68.60;;;;;;5080688;28;20032;-81
2023/10/14 13:08:39;;;;;;;3.67;1.08;;;17.20;68.70;;;;;;5114122;28;20053;-80
2023/10/14 13:11:05;;;;;;;5.53;0.85;;;17.20;68.10;;;;;;5080041;28;20457;-80
2023/10/14 13:13:31;;;;;;;5.65;0.75;;;17.30;67.30;;;;;;5113623;28;20052;-80
2023/10/14 13:15:56;;;;;;;4.30;0.75;;;17.30;66.90;;;;;;5114962;28;20024;-80
2023/10/14 13:18:24;;;;;;;6.15;1.02;;;17.40;67.50;;;;;;5096547;28;20130;-80
2023/10/14 13:20:50;;;;;;;5.53;0.80;;;17.40;69.30;;;;;;5096684;28;20045;-80
2023/10/14 13:23:15;;;;;;;2.95;0.90;;;17.40;67.60;;;;;;5113643;28;20024;-80
2023/10/14 13:25:45;;;;;;;5.60;0.80;;;17.10;67.40;;;;;;5113287;28;20039;-80
2023/10/14 13:28:13;;;;;;;5.38;1.05;;;17.00;68.70;;;;;;5097073;28;20027;-80
2023/10/14 13:30:45;;;;;;;5.22;0.68;;;16.80;70.30;;;;;;5097085;28;20020;-81
2023/10/14 13:33:13;;;;;;;3.00;0.60;;;16.60;70.50;;;;;;5113639;28;20020;-81
2023/10/14 13:35:43;;;;;;;2.25;0.50;;;16.70;69.60;;;;;;5080050;28;20118;-79
2023/10/14 13:38:10;;;;;;;3.58;0.70;;;17.20;70.80;;;;;;5113375;28;20015;-80